Chicago Bmc, Illinois
Current Conditions -  °F | °C
As of 9:51 AM on Friday 24 Oct 2014 (Local Time) from KORD Reporting Station
Scattered Clouds Scattered Clouds  
Wind Chill: 55°   Ceiling: Unl
Heat Index: 55°   Visibility: 9mi
Dew Point: 47°   Wind: 3mph
Humidity: 74%   Direction: NA
Pressure: 30.06"   Gusts: NA
Location:  42.0275°N, 87.808°W
Report Text: KORD 241451Z VRB03KT 9SM SCT250 13/08 A3006 RMK AO2 SLP180 T01280083 50001
Loading
Personal Weather Stations






























Interactive Weather Map
Tropical Storm Tracking
New forecast layout! Learn more

10-Day Weather Forecast

Advertisements
Track Severe Weather on mobile